sensor_id;sensor_type;location;lat;lon;timestamp;temperature;humidity
47174;DHT22;36730;49.036;9.094;2024-03-02T00:00:20;25.70;57.70
47174;DHT22;36730;49.036;9.094;2024-03-02T00:02:46;25.70;57.70
47174;DHT22;36730;49.036;9.094;2024-03-02T00:05:13;25.70;57.70
47174;DHT22;36730;49.036;9.094;2024-03-02T00:07:42;25.70;57.90
47174;DHT22;36730;49.036;9.094;2024-03-02T00:10:09;25.70;57.90
47174;DHT22;36730;49.036;9.094;2024-03-02T00:12:37;25.60;57.90
47174;DHT22;36730;49.036;9.094;2024-03-02T00:15:06;25.70;57.80
47174;DHT22;36730;49.036;9.094;2024-03-02T00:17:47;25.60;57.80
47174;DHT22;36730;49.036;9.094;2024-03-02T00:20:17;25.60;57.90
47174;DHT22;36730;49.036;9.094;2024-03-02T00:22:43;25.60;58.00
47174;DHT22;36730;49.036;9.094;2024-03-02T00:25:08;25.60;58.10
47174;DHT22;36730;49.036;9.094;2024-03-02T00:27:35;25.60;58.30
47174;DHT22;36730;49.036;9.094;2024-03-02T00:30:01;25.60;58.30
47174;DHT22;36730;49.036;9.094;2024-03-02T00:32:31;25.60;58.00
47174;DHT22;36730;49.036;9.094;2024-03-02T00:34:57;25.60;58.00
47174;DHT22;36730;49.036;9.094;2024-03-02T00:37:22;25.60;58.00
47174;DHT22;36730;49.036;9.094;2024-03-02T00:39:49;25.60;58.00
47174;DHT22;36730;49.036;9.094;2024-03-02T00:42:14;25.60;57.90
47174;DHT22;36730;49.036;9.094;2024-03-02T00:44:39;25.60;58.00
47174;DHT22;36730;49.036;9.094;2024-03-02T00:47:05;25.60;57.90
47174;DHT22;36730;49.036;9.094;2024-03-02T00:49:30;25.60;57.90
47174;DHT22;36730;49.036;9.094;2024-03-02T00:51:56;25.60;57.90
47174;DHT22;36730;49.036;9.094;2024-03-02T00:54:22;25.60;58.10
47174;DHT22;36730;49.036;9.094;2024-03-02T00:56:49;25.60;58.10
47174;DHT22;36730;49.036;9.094;2024-03-02T00:59:15;25.60;58.20
47174;DHT22;36730;49.036;9.094;2024-03-02T01:01:40;25.60;58.10
47174;DHT22;36730;49.036;9.094;2024-03-02T01:04:07;25.60;58.00
47174;DHT22;36730;49.036;9.094;2024-03-02T01:06:32;25.60;58.20
47174;DHT22;36730;49.036;9.094;2024-03-02T01:08:59;25.60;58.00
47174;DHT22;36730;49.036;9.094;2024-03-02T01:11:24;25.60;58.10
47174;DHT22;36730;49.036;9.094;2024-03-02T01:13:50;25.60;58.10
47174;DHT22;36730;49.036;9.094;2024-03-02T01:16:16;25.60;58.00
47174;DHT22;36730;49.036;9.094;2024-03-02T01:18:41;25.50;58.30
47174;DHT22;36730;49.036;9.094;2024-03-02T01:21:07;25.50;58.20
47174;DHT22;36730;49.036;9.094;2024-03-02T01:23:32;25.50;58.10
47174;DHT22;36730;49.036;9.094;2024-03-02T01:25:58;25.50;58.10
47174;DHT22;36730;49.036;9.094;2024-03-02T01:28:24;25.50;58.10
47174;DHT22;36730;49.036;9.094;2024-03-02T01:30:49;25.50;58.00
47174;DHT22;36730;49.036;9.094;2024-03-02T01:33:16;25.50;58.10
47174;DHT22;36730;49.036;9.094;2024-03-02T01:35:42;25.50;58.30
47174;DHT22;36730;49.036;9.094;2024-03-02T01:38:07;25.50;58.20
47174;DHT22;36730;49.036;9.094;2024-03-02T01:40:36;25.50;58.60
47174;DHT22;36730;49.036;9.094;2024-03-02T01:43:01;25.50;58.30
47174;DHT22;36730;49.036;9.094;2024-03-02T01:45:28;25.50;58.20
47174;DHT22;36730;49.036;9.094;2024-03-02T01:47:53;25.50;58.80
47174;DHT22;36730;49.036;9.094;2024-03-02T01:50:25;25.40;58.10
47174;DHT22;36730;49.036;9.094;2024-03-02T01:52:51;25.50;58.10
47174;DHT22;36730;49.036;9.094;2024-03-02T01:55:17;25.50;58.20
47174;DHT22;36730;49.036;9.094;2024-03-02T01:57:42;25.50;58.10
47174;DHT22;36730;49.036;9.094;2024-03-02T02:00:10;25.50;58.20
47174;DHT22;36730;49.036;9.094;2024-03-02T02:02:36;25.50;58.20
47174;DHT22;36730;49.036;9.094;2024-03-02T02:05:01;25.50;58.30
47174;DHT22;36730;49.036;9.094;2024-03-02T02:07:27;25.50;58.20
47174;DHT22;36730;49.036;9.094;2024-03-02T02:09:52;25.50;58.20
47174;DHT22;36730;49.036;9.094;2024-03-02T02:12:18;25.50;58.50
47174;DHT22;36730;49.036;9.094;2024-03-02T02:14:47;25.50;58.40
47174;DHT22;36730;49.036;9.094;2024-03-02T02:17:12;25.50;58.30
47174;DHT22;36730;49.036;9.094;2024-03-02T02:19:40;25.40;58.20
47174;DHT22;36730;49.036;9.094;2024-03-02T02:22:05;25.40;58.60
47174;DHT22;36730;49.036;9.094;2024-03-02T02:24:30;25.40;58.20
47174;DHT22;36730;49.036;9.094;2024-03-02T02:26:56;25.40;58.20
47174;DHT22;36730;49.036;9.094;2024-03-02T02:29:21;25.40;58.30
47174;DHT22;36730;49.036;9.094;2024-03-02T02:31:47;25.40;58.20
47174;DHT22;36730;49.036;9.094;2024-03-02T02:34:13;25.40;58.20
47174;DHT22;36730;49.036;9.094;2024-03-02T02:36:39;25.40;58.20
47174;DHT22;36730;49.036;9.094;2024-03-02T02:39:05;25.40;58.20
47174;DHT22;36730;49.036;9.094;2024-03-02T02:41:32;25.40;58.10
47174;DHT22;36730;49.036;9.094;2024-03-02T02:43:57;25.40;58.20
47174;DHT22;36730;49.036;9.094;2024-03-02T02:46:23;25.40;58.20
47174;DHT22;36730;49.036;9.094;2024-03-02T02:48:49;25.40;58.40
47174;DHT22;36730;49.036;9.094;2024-03-02T02:51:14;25.40;58.60
47174;DHT22;36730;49.036;9.094;2024-03-02T02:53:40;25.40;58.50
47174;DHT22;36730;49.036;9.094;2024-03-02T02:56:08;25.40;58.50
47174;DHT22;36730;49.036;9.094;2024-03-02T02:58:36;25.40;58.20
47174;DHT22;36730;49.036;9.094;2024-03-02T03:01:02;25.40;58.20
47174;DHT22;36730;49.036;9.094;2024-03-02T03:03:27;25.40;58.20
47174;DHT22;36730;49.036;9.094;2024-03-02T03:05:52;25.40;58.10
47174;DHT22;36730;49.036;9.094;2024-03-02T03:08:18;25.40;58.00
47174;DHT22;36730;49.036;9.094;2024-03-02T03:10:44;25.40;58.10
47174;DHT22;36730;49.036;9.094;2024-03-02T03:13:09;25.40;58.20
47174;DHT22;36730;49.036;9.094;2024-03-02T03:15:35;25.40;58.40
47174;DHT22;36730;49.036;9.094;2024-03-02T03:18:04;25.40;58.20
47174;DHT22;36730;49.036;9.094;2024-03-02T03:20:30;25.40;58.10
47174;DHT22;36730;49.036;9.094;2024-03-02T03:22:55;25.40;58.40
47174;DHT22;36730;49.036;9.094;2024-03-02T03:25:21;25.40;58.50
47174;DHT22;36730;49.036;9.094;2024-03-02T03:27:46;25.40;58.50
47174;DHT22;36730;49.036;9.094;2024-03-02T03:30:12;25.30;58.40
47174;DHT22;36730;49.036;9.094;2024-03-02T03:32:37;25.40;58.40
47174;DHT22;36730;49.036;9.094;2024-03-02T03:35:03;25.40;58.20
47174;DHT22;36730;49.036;9.094;2024-03-02T03:37:29;25.30;58.00
47174;DHT22;36730;49.036;9.094;2024-03-02T03:40:01;25.30;57.90
47174;DHT22;36730;49.036;9.094;2024-03-02T03:42:28;25.30;58.00
47174;DHT22;36730;49.036;9.094;2024-03-02T03:44:53;25.30;58.00
47174;DHT22;36730;49.036;9.094;2024-03-02T03:47:19;25.30;57.90
47174;DHT22;36730;49.036;9.094;2024-03-02T03:49:45;25.30;57.90
47174;DHT22;36730;49.036;9.094;2024-03-02T03:52:11;25.40;58.00
47174;DHT22;36730;49.036;9.094;2024-03-02T03:54:36;25.30;57.90
47174;DHT22;36730;49.036;9.094;2024-03-02T03:57:03;25.30;57.90
47174;DHT22;36730;49.036;9.094;2024-03-02T03:59:29;25.30;57.90
47174;DHT22;36730;49.036;9.094;2024-03-02T04:01:55;25.30;58.10
47174;DHT22;36730;49.036;9.094;2024-03-02T04:04:20;25.30;58.10
47174;DHT22;36730;49.036;9.094;2024-03-02T04:06:45;25.30;58.10
47174;DHT22;36730;49.036;9.094;2024-03-02T04:09:11;25.30;57.90
47174;DHT22;36730;49.036;9.094;2024-03-02T04:11:36;25.30;57.70
47174;DHT22;36730;49.036;9.094;2024-03-02T04:14:02;25.30;57.50
47174;DHT22;36730;49.036;9.094;2024-03-02T04:16:27;25.30;57.40
47174;DHT22;36730;49.036;9.094;2024-03-02T04:18:54;25.30;57.30
47174;DHT22;36730;49.036;9.094;2024-03-02T04:21:19;25.20;57.20
47174;DHT22;36730;49.036;9.094;2024-03-02T04:23:45;25.20;57.30
47174;DHT22;36730;49.036;9.094;2024-03-02T04:26:10;25.20;57.30
47174;DHT22;36730;49.036;9.094;2024-03-02T04:28:36;25.30;57.40
47174;DHT22;36730;49.036;9.094;2024-03-02T04:31:01;25.20;57.30
47174;DHT22;36730;49.036;9.094;2024-03-02T04:33:27;25.30;57.40
47174;DHT22;36730;49.036;9.094;2024-03-02T04:35:52;25.30;57.40
47174;DHT22;36730;49.036;9.094;2024-03-02T04:38:18;25.30;57.50
47174;DHT22;36730;49.036;9.094;2024-03-02T04:40:43;25.30;57.60
47174;DHT22;36730;49.036;9.094;2024-03-02T04:43:09;25.30;57.50
47174;DHT22;36730;49.036;9.094;2024-03-02T04:45:37;25.30;57.40
47174;DHT22;36730;49.036;9.094;2024-03-02T04:48:03;25.30;57.00
47174;DHT22;36730;49.036;9.094;2024-03-02T04:50:29;25.30;57.20
47174;DHT22;36730;49.036;9.094;2024-03-02T04:52:55;25.30;57.10
47174;DHT22;36730;49.036;9.094;2024-03-02T04:55:20;25.30;57.20
47174;DHT22;36730;49.036;9.094;2024-03-02T04:58:14;25.40;57.30
47174;DHT22;36730;49.036;9.094;2024-03-02T05:00:40;25.40;57.10
47174;DHT22;36730;49.036;9.094;2024-03-02T05:03:05;25.40;57.10
47174;DHT22;36730;49.036;9.094;2024-03-02T05:05:31;25.40;57.00
47174;DHT22;36730;49.036;9.094;2024-03-02T05:07:56;25.40;57.20
47174;DHT22;36730;49.036;9.094;2024-03-02T05:10:22;25.40;57.40
47174;DHT22;36730;49.036;9.094;2024-03-02T05:12:47;25.40;57.20
47174;DHT22;36730;49.036;9.094;2024-03-02T05:15:24;25.40;57.20
47174;DHT22;36730;49.036;9.094;2024-03-02T05:17:50;25.40;57.50
47174;DHT22;36730;49.036;9.094;2024-03-02T05:20:16;25.40;57.20
47174;DHT22;36730;49.036;9.094;2024-03-02T05:22:42;25.40;57.00
47174;DHT22;36730;49.036;9.094;2024-03-02T05:25:07;25.40;57.00
47174;DHT22;36730;49.036;9.094;2024-03-02T05:27:35;25.40;57.00
47174;DHT22;36730;49.036;9.094;2024-03-02T05:30:00;25.40;57.00
47174;DHT22;36730;49.036;9.094;2024-03-02T05:32:25;25.40;56.90
47174;DHT22;36730;49.036;9.094;2024-03-02T05:34:51;25.40;56.90
47174;DHT22;36730;49.036;9.094;2024-03-02T05:37:17;25.40;57.00
47174;DHT22;36730;49.036;9.094;2024-03-02T05:39:42;25.40;57.00
47174;DHT22;36730;49.036;9.094;2024-03-02T05:42:10;25.40;57.30
47174;DHT22;36730;49.036;9.094;2024-03-02T05:44:36;25.40;57.20
47174;DHT22;36730;49.036;9.094;2024-03-02T05:47:02;25.50;57.20
47174;DHT22;36730;49.036;9.094;2024-03-02T05:49:28;25.50;57.20
47174;DHT22;36730;49.036;9.094;2024-03-02T05:51:53;25.50;57.20
47174;DHT22;36730;49.036;9.094;2024-03-02T05:54:19;25.50;57.10
47174;DHT22;36730;49.036;9.094;2024-03-02T05:56:44;25.50;56.90
47174;DHT22;36730;49.036;9.094;2024-03-02T05:59:10;25.50;56.80
47174;DHT22;36730;49.036;9.094;2024-03-02T06:01:39;25.50;56.80
47174;DHT22;36730;49.036;9.094;2024-03-02T06:04:04;25.50;56.80
47174;DHT22;36730;49.036;9.094;2024-03-02T06:06:30;25.50;56.80
47174;DHT22;36730;49.036;9.094;2024-03-02T06:08:57;25.60;56.80
47174;DHT22;36730;49.036;9.094;2024-03-02T06:11:23;25.60;56.90
47174;DHT22;36730;49.036;9.094;2024-03-02T06:13:50;25.60;56.70
47174;DHT22;36730;49.036;9.094;2024-03-02T06:16:15;25.60;56.70
47174;DHT22;36730;49.036;9.094;2024-03-02T06:18:40;25.60;56.70
47174;DHT22;36730;49.036;9.094;2024-03-02T06:21:06;25.50;56.90
47174;DHT22;36730;49.036;9.094;2024-03-02T06:23:31;25.60;57.00
47174;DHT22;36730;49.036;9.094;2024-03-02T06:25:57;25.60;57.00
47174;DHT22;36730;49.036;9.094;2024-03-02T06:28:23;25.60;57.50
47174;DHT22;36730;49.036;9.094;2024-03-02T06:30:48;25.60;57.40
47174;DHT22;36730;49.036;9.094;2024-03-02T06:33:14;25.60;57.50
47174;DHT22;36730;49.036;9.094;2024-03-02T06:35:39;25.60;57.10
47174;DHT22;36730;49.036;9.094;2024-03-02T06:38:05;25.60;56.90
47174;DHT22;36730;49.036;9.094;2024-03-02T06:40:30;25.60;56.90
47174;DHT22;36730;49.036;9.094;2024-03-02T06:42:56;25.60;56.90
47174;DHT22;36730;49.036;9.094;2024-03-02T06:45:22;25.60;56.80
47174;DHT22;36730;49.036;9.094;2024-03-02T06:47:47;25.60;57.00
47174;DHT22;36730;49.036;9.094;2024-03-02T06:50:13;25.70;56.90
47174;DHT22;36730;49.036;9.094;2024-03-02T06:52:39;25.70;57.20
47174;DHT22;36730;49.036;9.094;2024-03-02T06:55:04;25.70;57.10
47174;DHT22;36730;49.036;9.094;2024-03-02T06:57:30;25.70;57.20
47174;DHT22;36730;49.036;9.094;2024-03-02T06:59:56;25.70;57.10
47174;DHT22;36730;49.036;9.094;2024-03-02T07:02:26;25.70;57.10
47174;DHT22;36730;49.036;9.094;2024-03-02T07:04:54;25.70;57.20
47174;DHT22;36730;49.036;9.094;2024-03-02T07:07:20;25.70;57.20
47174;DHT22;36730;49.036;9.094;2024-03-02T07:09:46;25.70;56.80
47174;DHT22;36730;49.036;9.094;2024-03-02T07:12:11;25.80;57.50
47174;DHT22;36730;49.036;9.094;2024-03-02T07:14:37;25.70;57.00
47174;DHT22;36730;49.036;9.094;2024-03-02T07:17:37;25.80;57.70
47174;DHT22;36730;49.036;9.094;2024-03-02T07:20:02;25.80;56.90
47174;DHT22;36730;49.036;9.094;2024-03-02T07:22:29;25.80;56.80
47174;DHT22;36730;49.036;9.094;2024-03-02T07:24:55;25.80;56.60
47174;DHT22;36730;49.036;9.094;2024-03-02T07:27:20;25.80;56.70
47174;DHT22;36730;49.036;9.094;2024-03-02T07:29:46;25.80;56.70
47174;DHT22;36730;49.036;9.094;2024-03-02T07:32:11;25.80;56.70
47174;DHT22;36730;49.036;9.094;2024-03-02T07:34:37;25.80;57.10
47174;DHT22;36730;49.036;9.094;2024-03-02T07:37:03;25.80;56.80
47174;DHT22;36730;49.036;9.094;2024-03-02T07:39:28;25.80;57.40
47174;DHT22;36730;49.036;9.094;2024-03-02T07:41:54;25.80;57.20
47174;DHT22;36730;49.036;9.094;2024-03-02T07:44:20;25.80;57.00
47174;DHT22;36730;49.036;9.094;2024-03-02T07:46:46;25.80;57.00
47174;DHT22;36730;49.036;9.094;2024-03-02T07:49:12;25.80;57.00
47174;DHT22;36730;49.036;9.094;2024-03-02T07:51:39;25.80;56.80
47174;DHT22;36730;49.036;9.094;2024-03-02T07:54:04;25.80;56.70
47174;DHT22;36730;49.036;9.094;2024-03-02T07:56:30;25.80;56.80
47174;DHT22;36730;49.036;9.094;2024-03-02T07:58:55;25.80;56.90
47174;DHT22;36730;49.036;9.094;2024-03-02T08:01:22;25.90;57.10
47174;DHT22;36730;49.036;9.094;2024-03-02T08:03:48;25.90;57.00
47174;DHT22;36730;49.036;9.094;2024-03-02T08:06:15;25.90;56.80
47174;DHT22;36730;49.036;9.094;2024-03-02T08:08:41;25.90;56.70
47174;DHT22;36730;49.036;9.094;2024-03-02T08:11:06;25.90;56.80
47174;DHT22;36730;49.036;9.094;2024-03-02T08:13:32;25.90;56.80
47174;DHT22;36730;49.036;9.094;2024-03-02T08:15:57;25.90;56.80
47174;DHT22;36730;49.036;9.094;2024-03-02T08:18:23;25.90;57.20
47174;DHT22;36730;49.036;9.094;2024-03-02T08:20:49;25.90;56.50
47174;DHT22;36730;49.036;9.094;2024-03-02T08:23:14;26.00;56.90
47174;DHT22;36730;49.036;9.094;2024-03-02T08:25:39;26.00;57.00
47174;DHT22;36730;49.036;9.094;2024-03-02T08:28:05;26.00;56.90
47174;DHT22;36730;49.036;9.094;2024-03-02T08:30:31;26.00;56.70
47174;DHT22;36730;49.036;9.094;2024-03-02T08:32:56;26.00;56.60
47174;DHT22;36730;49.036;9.094;2024-03-02T08:35:22;26.00;56.30
47174;DHT22;36730;49.036;9.094;2024-03-02T08:37:48;26.00;56.50
47174;DHT22;36730;49.036;9.094;2024-03-02T08:40:14;26.10;56.00
47174;DHT22;36730;49.036;9.094;2024-03-02T08:42:39;26.10;56.00
47174;DHT22;36730;49.036;9.094;2024-03-02T08:45:05;26.00;55.90
47174;DHT22;36730;49.036;9.094;2024-03-02T08:47:31;26.10;56.00
47174;DHT22;36730;49.036;9.094;2024-03-02T08:49:56;26.10;56.40
47174;DHT22;36730;49.036;9.094;2024-03-02T08:52:22;26.10;56.30
47174;DHT22;36730;49.036;9.094;2024-03-02T08:54:47;26.10;56.00
47174;DHT22;36730;49.036;9.094;2024-03-02T08:57:13;26.10;55.90
47174;DHT22;36730;49.036;9.094;2024-03-02T08:59:38;26.20;56.30
47174;DHT22;36730;49.036;9.094;2024-03-02T09:02:04;26.20;56.10
47174;DHT22;36730;49.036;9.094;2024-03-02T09:04:29;26.20;56.10
47174;DHT22;36730;49.036;9.094;2024-03-02T09:06:55;26.20;55.80
47174;DHT22;36730;49.036;9.094;2024-03-02T09:09:20;26.20;55.90
47174;DHT22;36730;49.036;9.094;2024-03-02T09:11:46;26.30;56.00
47174;DHT22;36730;49.036;9.094;2024-03-02T09:14:12;26.30;55.90
47174;DHT22;36730;49.036;9.094;2024-03-02T09:16:37;26.30;56.10
47174;DHT22;36730;49.036;9.094;2024-03-02T09:19:03;26.30;55.90
47174;DHT22;36730;49.036;9.094;2024-03-02T09:21:28;26.40;56.00
47174;DHT22;36730;49.036;9.094;2024-03-02T09:23:55;26.40;55.90
47174;DHT22;36730;49.036;9.094;2024-03-02T09:26:20;26.40;55.90
47174;DHT22;36730;49.036;9.094;2024-03-02T09:28:46;26.40;55.80
47174;DHT22;36730;49.036;9.094;2024-03-02T09:31:11;26.50;56.00
47174;DHT22;36730;49.036;9.094;2024-03-02T09:33:37;26.50;55.80
47174;DHT22;36730;49.036;9.094;2024-03-02T09:36:04;26.50;55.80
47174;DHT22;36730;49.036;9.094;2024-03-02T09:38:31;26.50;55.70
47174;DHT22;36730;49.036;9.094;2024-03-02T09:40:57;26.60;55.60
47174;DHT22;36730;49.036;9.094;2024-03-02T09:43:22;26.60;55.30
47174;DHT22;36730;49.036;9.094;2024-03-02T09:45:48;26.60;55.30
47174;DHT22;36730;49.036;9.094;2024-03-02T09:48:14;26.70;55.50
47174;DHT22;36730;49.036;9.094;2024-03-02T09:50:39;26.70;55.60
47174;DHT22;36730;49.036;9.094;2024-03-02T09:53:05;26.70;56.20
47174;DHT22;36730;49.036;9.094;2024-03-02T09:55:31;26.80;55.70
47174;DHT22;36730;49.036;9.094;2024-03-02T09:57:56;26.80;55.50
47174;DHT22;36730;49.036;9.094;2024-03-02T10:00:22;26.80;55.60
47174;DHT22;36730;49.036;9.094;2024-03-02T10:02:47;26.90;55.60
47174;DHT22;36730;49.036;9.094;2024-03-02T10:05:23;26.90;55.60
47174;DHT22;36730;49.036;9.094;2024-03-02T10:07:59;26.90;55.50
47174;DHT22;36730;49.036;9.094;2024-03-02T10:10:26;27.00;55.60
47174;DHT22;36730;49.036;9.094;2024-03-02T10:13:03;27.00;55.50
47174;DHT22;36730;49.036;9.094;2024-03-02T10:15:29;27.00;55.50
47174;DHT22;36730;49.036;9.094;2024-03-02T10:17:54;27.10;55.50
47174;DHT22;36730;49.036;9.094;2024-03-02T10:20:26;27.10;55.50
47174;DHT22;36730;49.036;9.094;2024-03-02T10:22:54;27.10;55.60
47174;DHT22;36730;49.036;9.094;2024-03-02T10:25:30;27.10;55.50
47174;DHT22;36730;49.036;9.094;2024-03-02T10:27:57;27.20;55.40
47174;DHT22;36730;49.036;9.094;2024-03-02T10:30:22;27.20;55.40
47174;DHT22;36730;49.036;9.094;2024-03-02T10:32:49;27.30;55.50
47174;DHT22;36730;49.036;9.094;2024-03-02T10:35:14;27.30;55.50
47174;DHT22;36730;49.036;9.094;2024-03-02T10:37:40;27.30;55.40
47174;DHT22;36730;49.036;9.094;2024-03-02T10:40:06;27.40;55.40
47174;DHT22;36730;49.036;9.094;2024-03-02T10:42:33;27.40;55.30
47174;DHT22;36730;49.036;9.094;2024-03-02T10:44:59;27.50;55.20
47174;DHT22;36730;49.036;9.094;2024-03-02T10:47:25;27.50;55.10
47174;DHT22;36730;49.036;9.094;2024-03-02T10:49:52;27.50;55.00
47174;DHT22;36730;49.036;9.094;2024-03-02T10:52:18;27.50;54.60
47174;DHT22;36730;49.036;9.094;2024-03-02T10:54:43;27.60;54.70
47174;DHT22;36730;49.036;9.094;2024-03-02T10:57:09;27.60;54.70
47174;DHT22;36730;49.036;9.094;2024-03-02T10:59:36;27.60;54.60
47174;DHT22;36730;49.036;9.094;2024-03-02T11:02:04;27.60;54.50
47174;DHT22;36730;49.036;9.094;2024-03-02T11:04:32;27.60;54.30
47174;DHT22;36730;49.036;9.094;2024-03-02T11:07:06;27.70;54.30
47174;DHT22;36730;49.036;9.094;2024-03-02T11:09:37;27.70;54.20
47174;DHT22;36730;49.036;9.094;2024-03-02T11:12:03;27.70;54.10
47174;DHT22;36730;49.036;9.094;2024-03-02T11:14:31;27.80;54.10
47174;DHT22;36730;49.036;9.094;2024-03-02T11:17:00;27.80;54.00
47174;DHT22;36730;49.036;9.094;2024-03-02T11:19:27;27.80;53.80
47174;DHT22;36730;49.036;9.094;2024-03-02T11:21:52;27.80;53.70
47174;DHT22;36730;49.036;9.094;2024-03-02T11:26:46;27.90;53.60
47174;DHT22;36730;49.036;9.094;2024-03-02T11:32:00;28.00;53.60
47174;DHT22;36730;49.036;9.094;2024-03-02T11:34:32;28.00;53.80
47174;DHT22;36730;49.036;9.094;2024-03-02T11:36:58;28.00;53.60
47174;DHT22;36730;49.036;9.094;2024-03-02T11:39:27;28.00;51.90
47174;DHT22;36730;49.036;9.094;2024-03-02T11:41:53;27.80;48.10
47174;DHT22;36730;49.036;9.094;2024-03-02T11:44:18;27.60;45.40
47174;DHT22;36730;49.036;9.094;2024-03-02T11:52:11;26.90;43.30
47174;DHT22;36730;49.036;9.094;2024-03-02T11:54:38;26.70;43.30
47174;DHT22;36730;49.036;9.094;2024-03-02T11:57:11;26.60;43.10
47174;DHT22;36730;49.036;9.094;2024-03-02T11:59:37;26.30;42.60
47174;DHT22;36730;49.036;9.094;2024-03-02T12:02:03;26.20;42.60
47174;DHT22;36730;49.036;9.094;2024-03-02T12:04:28;26.00;42.60
47174;DHT22;36730;49.036;9.094;2024-03-02T12:06:55;25.80;42.60
47174;DHT22;36730;49.036;9.094;2024-03-02T12:09:21;25.80;43.20
47174;DHT22;36730;49.036;9.094;2024-03-02T12:11:46;25.70;43.30
47174;DHT22;36730;49.036;9.094;2024-03-02T12:14:12;25.60;43.40
47174;DHT22;36730;49.036;9.094;2024-03-02T12:16:44;25.70;43.50
47174;DHT22;36730;49.036;9.094;2024-03-02T12:19:09;25.70;43.50
47174;DHT22;36730;49.036;9.094;2024-03-02T12:21:35;25.70;43.40
47174;DHT22;36730;49.036;9.094;2024-03-02T12:24:01;25.60;43.30
47174;DHT22;36730;49.036;9.094;2024-03-02T12:26:27;25.60;43.50
47174;DHT22;36730;49.036;9.094;2024-03-02T12:28:53;25.60;43.40
47174;DHT22;36730;49.036;9.094;2024-03-02T12:31:19;25.60;43.40
47174;DHT22;36730;49.036;9.094;2024-03-02T12:33:45;25.60;43.40
47174;DHT22;36730;49.036;9.094;2024-03-02T12:36:12;25.60;43.10
47174;DHT22;36730;49.036;9.094;2024-03-02T12:38:42;25.70;43.50
47174;DHT22;36730;49.036;9.094;2024-03-02T12:41:08;25.70;43.20
47174;DHT22;36730;49.036;9.094;2024-03-02T12:43:33;25.70;43.50
47174;DHT22;36730;49.036;9.094;2024-03-02T12:45:59;25.70;43.30
47174;DHT22;36730;49.036;9.094;2024-03-02T12:48:24;25.70;43.30
47174;DHT22;36730;49.036;9.094;2024-03-02T12:50:50;25.70;43.40
47174;DHT22;36730;49.036;9.094;2024-03-02T12:53:15;25.70;43.30
47174;DHT22;36730;49.036;9.094;2024-03-02T12:55:41;25.70;43.30
47174;DHT22;36730;49.036;9.094;2024-03-02T12:58:07;25.70;43.30
47174;DHT22;36730;49.036;9.094;2024-03-02T13:00:32;25.70;43.30
47174;DHT22;36730;49.036;9.094;2024-03-02T13:03:00;25.70;43.10
47174;DHT22;36730;49.036;9.094;2024-03-02T13:05:31;25.70;43.40
47174;DHT22;36730;49.036;9.094;2024-03-02T13:07:57;25.70;43.30
47174;DHT22;36730;49.036;9.094;2024-03-02T13:10:23;25.70;43.50
47174;DHT22;36730;49.036;9.094;2024-03-02T13:12:48;25.70;43.60
47174;DHT22;36730;49.036;9.094;2024-03-02T13:15:14;25.80;43.70
47174;DHT22;36730;49.036;9.094;2024-03-02T13:17:40;25.80;43.60
47174;DHT22;36730;49.036;9.094;2024-03-02T13:20:06;25.80;43.40
47174;DHT22;36730;49.036;9.094;2024-03-02T13:22:35;25.80;43.60
47174;DHT22;36730;49.036;9.094;2024-03-02T13:25:01;25.80;43.40
47174;DHT22;36730;49.036;9.094;2024-03-02T13:27:29;25.80;43.40
47174;DHT22;36730;49.036;9.094;2024-03-02T13:29:55;25.80;43.70
47174;DHT22;36730;49.036;9.094;2024-03-02T13:32:20;25.80;43.90
47174;DHT22;36730;49.036;9.094;2024-03-02T13:34:49;25.80;43.80
47174;DHT22;36730;49.036;9.094;2024-03-02T13:37:14;25.90;43.70
47174;DHT22;36730;49.036;9.094;2024-03-02T13:39:40;25.90;43.80
47174;DHT22;36730;49.036;9.094;2024-03-02T13:42:09;25.90;43.70
47174;DHT22;36730;49.036;9.094;2024-03-02T13:44:36;26.00;43.90
47174;DHT22;36730;49.036;9.094;2024-03-02T13:47:02;26.00;43.80
47174;DHT22;36730;49.036;9.094;2024-03-02T13:49:27;26.10;43.80
47174;DHT22;36730;49.036;9.094;2024-03-02T13:52:05;26.10;43.70
47174;DHT22;36730;49.036;9.094;2024-03-02T13:54:42;26.20;44.10
47174;DHT22;36730;49.036;9.094;2024-03-02T13:57:08;26.20;43.90
47174;DHT22;36730;49.036;9.094;2024-03-02T13:59:34;26.20;43.80
47174;DHT22;36730;49.036;9.094;2024-03-02T14:02:00;26.20;43.80
47174;DHT22;36730;49.036;9.094;2024-03-02T14:04:26;26.20;43.80
47174;DHT22;36730;49.036;9.094;2024-03-02T14:06:52;26.20;44.40
47174;DHT22;36730;49.036;9.094;2024-03-02T14:09:18;26.30;43.70
47174;DHT22;36730;49.036;9.094;2024-03-02T14:11:45;26.20;43.70
47174;DHT22;36730;49.036;9.094;2024-03-02T14:14:11;26.30;43.80
47174;DHT22;36730;49.036;9.094;2024-03-02T14:16:36;26.30;43.90
47174;DHT22;36730;49.036;9.094;2024-03-02T14:19:02;26.30;43.70
47174;DHT22;36730;49.036;9.094;2024-03-02T14:21:30;26.30;43.70
47174;DHT22;36730;49.036;9.094;2024-03-02T14:23:55;26.30;43.70
47174;DHT22;36730;49.036;9.094;2024-03-02T14:26:21;26.30;43.80
47174;DHT22;36730;49.036;9.094;2024-03-02T14:28:46;26.30;43.60
47174;DHT22;36730;49.036;9.094;2024-03-02T14:31:12;26.30;43.70
47174;DHT22;36730;49.036;9.094;2024-03-02T14:33:38;26.30;44.10
47174;DHT22;36730;49.036;9.094;2024-03-02T14:36:03;26.30;43.90
47174;DHT22;36730;49.036;9.094;2024-03-02T14:38:29;26.20;43.80
47174;DHT22;36730;49.036;9.094;2024-03-02T14:40:55;26.30;43.90
47174;DHT22;36730;49.036;9.094;2024-03-02T14:43:21;26.30;43.90
47174;DHT22;36730;49.036;9.094;2024-03-02T14:45:46;26.20;43.90
47174;DHT22;36730;49.036;9.094;2024-03-02T14:48:11;26.30;44.00
47174;DHT22;36730;49.036;9.094;2024-03-02T14:50:37;26.30;43.90
47174;DHT22;36730;49.036;9.094;2024-03-02T14:53:02;26.30;43.80
47174;DHT22;36730;49.036;9.094;2024-03-02T14:55:28;26.30;43.80
47174;DHT22;36730;49.036;9.094;2024-03-02T14:57:53;26.30;43.80
47174;DHT22;36730;49.036;9.094;2024-03-02T15:00:19;26.30;43.60
47174;DHT22;36730;49.036;9.094;2024-03-02T15:02:44;26.40;43.80
47174;DHT22;36730;49.036;9.094;2024-03-02T15:05:10;26.40;43.80
47174;DHT22;36730;49.036;9.094;2024-03-02T15:07:35;26.40;43.90
47174;DHT22;36730;49.036;9.094;2024-03-02T15:10:01;26.40;43.70
47174;DHT22;36730;49.036;9.094;2024-03-02T15:12:26;26.50;43.70
47174;DHT22;36730;49.036;9.094;2024-03-02T15:14:52;26.50;43.80
47174;DHT22;36730;49.036;9.094;2024-03-02T15:17:18;26.60;44.10
47174;DHT22;36730;49.036;9.094;2024-03-02T15:19:44;26.60;44.00
47174;DHT22;36730;49.036;9.094;2024-03-02T15:22:09;26.50;43.90
47174;DHT22;36730;49.036;9.094;2024-03-02T15:24:35;26.60;44.00
47174;DHT22;36730;49.036;9.094;2024-03-02T15:27:01;26.50;43.90
47174;DHT22;36730;49.036;9.094;2024-03-02T15:29:31;26.60;44.00
47174;DHT22;36730;49.036;9.094;2024-03-02T15:31:56;26.60;44.00
47174;DHT22;36730;49.036;9.094;2024-03-02T15:34:22;26.60;44.20